createdAt,value
2023-03-29T00:01:10.272Z,20.90
2023-03-29T00:03:39.834Z,24.98
2023-03-29T00:06:07.738Z,19.80
2023-03-29T00:08:38.400Z,20.65
2023-03-29T00:11:09.298Z,24.42
2023-03-29T00:13:38.314Z,21.45
2023-03-29T00:16:06.498Z,22.45
2023-03-29T00:21:01.965Z,20.92
2023-03-29T00:23:31.565Z,18.85
2023-03-29T00:25:59.716Z,35.50
2023-03-29T00:28:27.295Z,18.85
2023-03-29T00:31:04.140Z,22.40
2023-03-29T00:33:32.399Z,19.50
2023-03-29T00:36:01.531Z,26.45
2023-03-29T00:38:31.479Z,19.33
2023-03-29T00:40:59.745Z,22.92
2023-03-29T00:43:27.784Z,23.73
2023-03-29T00:45:56.952Z,22.90
2023-03-29T00:48:28.192Z,26.77
2023-03-29T00:51:10.717Z,28.05
2023-03-29T00:53:50.905Z,26.50
2023-03-29T00:56:35.176Z,26.33
2023-03-29T00:59:22.148Z,23.50
2023-03-29T01:02:09.647Z,28.88
2023-03-29T01:05:07.807Z,30.35
2023-03-29T01:07:44.201Z,30.90
2023-03-29T01:10:17.312Z,41.90
2023-03-29T01:12:53.601Z,42.10
2023-03-29T01:15:29.317Z,48.20
2023-03-29T01:18:02.081Z,55.88
2023-03-29T01:20:51.355Z,52.67
2023-03-29T01:23:45.887Z,47.15
2023-03-29T01:26:19.765Z,44.33
2023-03-29T01:28:59.918Z,50.60
2023-03-29T01:31:58.778Z,42.53
2023-03-29T01:34:43.437Z,38.33
2023-03-29T01:37:29.040Z,42.22
2023-03-29T01:39:56.878Z,37.97
2023-03-29T01:45:12.743Z,37.00
2023-03-29T01:48:00.121Z,39.63
2023-03-29T01:50:37.840Z,38.95
2023-03-29T01:53:18.390Z,43.05
2023-03-29T01:55:57.321Z,41.42
2023-03-29T01:58:31.661Z,37.50
2023-03-29T02:01:05.841Z,33.22
2023-03-29T02:03:34.739Z,45.63
2023-03-29T02:06:05.395Z,43.15
2023-03-29T02:13:31.015Z,35.20
2023-03-29T02:16:03.326Z,35.50
2023-03-29T02:18:36.182Z,40.67
2023-03-29T02:21:07.999Z,41.55
2023-03-29T02:23:41.805Z,39.20
2023-03-29T02:26:11.338Z,41.60
2023-03-29T02:28:40.848Z,41.80
2023-03-29T02:31:52.028Z,40.00
2023-03-29T02:34:30.385Z,33.80
2023-03-29T02:37:03.197Z,35.28
2023-03-29T02:39:34.081Z,34.25
2023-03-29T02:42:04.036Z,38.33
2023-03-29T02:44:36.613Z,31.73
2023-03-29T02:47:14.091Z,36.30
2023-03-29T02:49:43.947Z,38.13
2023-03-29T02:52:16.685Z,27.88
2023-03-29T02:54:48.468Z,31.83
2023-03-29T02:57:16.502Z,31.75
2023-03-29T02:59:45.142Z,28.30
2023-03-29T03:02:14.880Z,33.55
2023-03-29T03:04:43.679Z,30.85
2023-03-29T03:07:12.228Z,33.80
2023-03-29T03:09:43.733Z,37.33
2023-03-29T03:12:11.998Z,33.90
2023-03-29T03:14:40.709Z,32.95
2023-03-29T03:17:08.674Z,39.60
2023-03-29T03:19:39.612Z,40.97
2023-03-29T03:22:07.939Z,46.22
2023-03-29T03:27:03.719Z,41.60
2023-03-29T03:29:32.486Z,43.20
2023-03-29T03:32:14.572Z,38.30
2023-03-29T03:35:20.437Z,45.55
2023-03-29T03:37:48.770Z,42.20
2023-03-29T03:40:20.880Z,39.35
2023-03-29T03:42:49.821Z,49.08
2023-03-29T03:45:17.793Z,49.22
2023-03-29T03:47:49.978Z,46.95
2023-03-29T03:50:40.880Z,43.88
2023-03-29T03:53:19.768Z,44.13
2023-03-29T03:56:09.267Z,48.78
2023-03-29T03:58:52.750Z,49.42
2023-03-29T04:01:23.748Z,50.70
2023-03-29T04:04:03.184Z,50.80
2023-03-29T04:06:33.405Z,44.95
2023-03-29T04:12:02.208Z,44.47
2023-03-29T04:14:32.527Z,41.22
2023-03-29T04:17:09.675Z,50.88
2023-03-29T04:20:01.515Z,50.08
2023-03-29T04:22:33.186Z,55.33
2023-03-29T04:25:01.660Z,59.60
2023-03-29T04:27:36.415Z,53.15
2023-03-29T04:30:11.437Z,51.13
2023-03-29T04:32:58.198Z,55.35
2023-03-29T04:35:26.276Z,58.80
2023-03-29T04:37:54.739Z,54.90
2023-03-29T04:40:23.612Z,50.97
2023-03-29T04:43:03.980Z,55.72
2023-03-29T04:45:32.370Z,54.60
2023-03-29T04:48:10.733Z,60.22
2023-03-29T04:50:46.319Z,53.22
2023-03-29T04:53:15.682Z,43.55
2023-03-29T04:55:47.529Z,47.20
2023-03-29T05:00:58.270Z,40.10
2023-03-29T05:03:32.635Z,50.50
2023-03-29T05:06:07.565Z,47.60
2023-03-29T05:08:40.452Z,47.40
2023-03-29T05:11:15.709Z,55.47
2023-03-29T05:13:46.519Z,45.38
2023-03-29T05:16:16.701Z,41.65
2023-03-29T05:18:45.273Z,49.35
2023-03-29T05:21:14.224Z,43.35
2023-03-29T05:23:45.815Z,49.55
2023-03-29T05:26:31.924Z,50.20
2023-03-29T05:29:00.141Z,42.35
2023-03-29T05:31:29.599Z,46.40
2023-03-29T05:33:57.969Z,49.35
2023-03-29T05:36:29.035Z,40.90
2023-03-29T05:41:26.497Z,48.53
2023-03-29T05:44:17.514Z,45.20
2023-03-29T05:46:49.815Z,52.28
2023-03-29T05:49:18.713Z,54.67
2023-03-29T05:51:58.702Z,48.80
2023-03-29T05:54:28.219Z,36.50
2023-03-29T05:56:56.041Z,48.38
2023-03-29T05:59:24.554Z,56.40
2023-03-29T06:01:53.040Z,47.22
2023-03-29T06:04:22.133Z,50.75
2023-03-29T06:09:30.703Z,51.75
2023-03-29T06:12:04.384Z,50.55
2023-03-29T06:14:49.992Z,54.05
2023-03-29T06:17:43.629Z,53.40
2023-03-29T06:20:12.726Z,63.53
2023-03-29T06:22:43.970Z,55.25
2023-03-29T06:25:14.289Z,56.28
2023-03-29T06:27:46.991Z,59.47
2023-03-29T06:30:17.287Z,54.40
2023-03-29T06:32:50.842Z,55.15
2023-03-29T06:35:49.692Z,51.83
2023-03-29T06:38:25.342Z,59.00
2023-03-29T06:41:07.551Z,52.88
2023-03-29T06:43:55.163Z,56.50
2023-03-29T06:46:32.472Z,49.92
2023-03-29T06:49:07.216Z,56.42
2023-03-29T06:51:44.335Z,60.13
2023-03-29T06:54:17.378Z,49.67
2023-03-29T06:57:01.608Z,51.95
2023-03-29T06:59:31.423Z,47.15
2023-03-29T07:02:09.950Z,46.83
2023-03-29T07:04:47.889Z,52.58
2023-03-29T07:07:33.356Z,45.28
2023-03-29T07:10:28.329Z,45.03
2023-03-29T07:13:15.722Z,50.25
2023-03-29T07:15:45.236Z,48.35
2023-03-29T07:18:32.658Z,50.78
2023-03-29T07:21:01.391Z,45.28
2023-03-29T07:23:31.193Z,32.63
2023-03-29T07:26:00.496Z,43.72
2023-03-29T07:28:29.150Z,41.75
2023-03-29T07:33:41.525Z,35.60
2023-03-29T07:36:12.473Z,45.13
2023-03-29T07:38:41.907Z,34.20
2023-03-29T07:41:15.796Z,35.60
2023-03-29T07:43:47.133Z,41.05
2023-03-29T07:46:22.072Z,34.53
2023-03-29T07:48:50.817Z,35.42
2023-03-29T07:51:18.635Z,33.97
2023-03-29T07:53:49.939Z,38.70
2023-03-29T07:56:45.124Z,24.45
2023-03-29T07:59:33.500Z,56.28
2023-03-29T08:02:21.488Z,33.88
2023-03-29T08:04:54.800Z,30.00
2023-03-29T08:07:31.403Z,27.13
2023-03-29T08:10:05.233Z,26.70
2023-03-29T08:12:50.468Z,24.45
2023-03-29T08:15:20.921Z,27.95
2023-03-29T08:17:50.867Z,30.95
2023-03-29T08:20:19.300Z,25.20
2023-03-29T08:22:50.009Z,26.23
2023-03-29T08:25:40.445Z,21.33
2023-03-29T08:28:11.788Z,20.38
2023-03-29T08:30:45.853Z,27.75
2023-03-29T08:33:14.349Z,21.08
2023-03-29T08:35:42.930Z,25.85
2023-03-29T08:38:17.998Z,27.65
2023-03-29T08:40:49.303Z,24.92
2023-03-29T08:43:36.587Z,35.85
2023-03-29T08:46:27.444Z,29.65
2023-03-29T08:49:06.972Z,20.02
2023-03-29T08:51:46.568Z,19.75
2023-03-29T08:54:25.066Z,17.27
2023-03-29T08:57:27.296Z,20.48
2023-03-29T09:00:06.276Z,23.65
2023-03-29T09:02:39.022Z,23.63
2023-03-29T09:05:32.017Z,22.77
2023-03-29T09:12:05.633Z,21.98
2023-03-29T09:14:47.054Z,24.33
2023-03-29T09:20:54.455Z,16.98
2023-03-29T09:24:03.691Z,12.70
2023-03-29T09:26:49.380Z,16.92
2023-03-29T09:29:35.188Z,14.40
2023-03-29T09:32:13.708Z,18.85
2023-03-29T09:34:49.534Z,20.77
2023-03-29T09:37:37.206Z,19.85
2023-03-29T09:40:31.264Z,16.33
2023-03-29T09:43:11.350Z,19.58
2023-03-29T09:45:43.877Z,16.80
2023-03-29T09:48:17.987Z,21.65
2023-03-29T09:50:52.596Z,20.85
2023-03-29T09:53:22.209Z,22.08
2023-03-29T09:56:09.941Z,17.90
2023-03-29T09:58:47.110Z,15.73
2023-03-29T10:01:17.850Z,19.77
2023-03-29T10:03:54.276Z,16.83
2023-03-29T10:06:26.076Z,21.40
2023-03-29T10:08:59.454Z,22.55
2023-03-29T10:11:48.200Z,14.95
2023-03-29T10:14:32.282Z,13.05
2023-03-29T10:17:00.038Z,12.63
2023-03-29T10:19:34.904Z,15.57
2023-03-29T10:22:08.270Z,17.17
2023-03-29T10:24:36.440Z,15.60
2023-03-29T10:27:10.912Z,15.68
2023-03-29T10:29:42.879Z,16.83
2023-03-29T10:32:24.116Z,17.63
2023-03-29T10:34:55.034Z,17.88
2023-03-29T10:37:24.167Z,14.27
2023-03-29T10:39:54.402Z,14.40
2023-03-29T10:42:24.500Z,14.35
2023-03-29T10:44:58.113Z,11.10
2023-03-29T10:47:26.296Z,15.68
2023-03-29T10:49:59.205Z,13.52
2023-03-29T10:52:29.185Z,18.38
2023-03-29T10:55:00.369Z,13.80
2023-03-29T10:57:57.640Z,12.68
2023-03-29T11:00:59.017Z,15.95
2023-03-29T11:03:59.828Z,14.65
2023-03-29T11:06:45.879Z,12.80
2023-03-29T11:09:14.492Z,15.20
2023-03-29T11:12:14.464Z,13.85
2023-03-29T11:15:01.564Z,15.52
2023-03-29T11:17:41.440Z,16.55
2023-03-29T11:20:21.689Z,14.82
2023-03-29T11:23:13.903Z,13.85
2023-03-29T11:26:04.907Z,14.43
2023-03-29T11:28:56.972Z,12.23
2023-03-29T11:31:39.333Z,10.50
2023-03-29T11:34:23.009Z,12.38
2023-03-29T11:37:07.822Z,9.73
2023-03-29T11:40:13.850Z,11.68
2023-03-29T11:42:45.757Z,10.15
2023-03-29T11:45:21.306Z,10.15
2023-03-29T11:47:52.066Z,8.93
2023-03-29T11:50:43.250Z,10.30
2023-03-29T11:53:22.952Z,9.88
2023-03-29T11:55:52.967Z,9.30
2023-03-29T11:58:36.556Z,8.30
2023-03-29T12:01:45.759Z,9.55
2023-03-29T12:04:23.095Z,7.18
2023-03-29T12:06:58.515Z,10.45
2023-03-29T12:09:59.024Z,8.30
2023-03-29T12:12:42.208Z,7.10
2023-03-29T12:15:20.507Z,7.10
2023-03-29T12:18:12.987Z,7.85
2023-03-29T12:20:42.149Z,8.02
2023-03-29T12:23:16.995Z,6.82
2023-03-29T12:26:14.025Z,6.88
2023-03-29T12:28:59.281Z,6.60
2023-03-29T12:32:01.786Z,7.70
2023-03-29T12:34:46.519Z,6.72
2023-03-29T12:37:56.674Z,5.00
2023-03-29T12:40:46.896Z,6.35
2023-03-29T12:43:40.010Z,6.53
2023-03-29T12:46:33.331Z,6.35
2023-03-29T12:49:13.253Z,4.97
2023-03-29T12:51:43.052Z,4.93
2023-03-29T12:54:15.942Z,4.32
2023-03-29T12:56:56.917Z,7.20
2023-03-29T12:59:47.299Z,5.53
2023-03-29T13:02:19.842Z,5.38
2023-03-29T13:04:54.405Z,4.68
2023-03-29T13:07:27.994Z,4.95
2023-03-29T13:10:07.878Z,4.38
2023-03-29T13:12:43.826Z,3.55
2023-03-29T13:15:14.792Z,3.92
2023-03-29T13:17:52.755Z,4.13
2023-03-29T13:20:37.494Z,4.40
2023-03-29T13:23:49.145Z,4.60
2023-03-29T13:26:29.131Z,4.35
2023-03-29T13:29:06.233Z,5.25
2023-03-29T13:31:47.395Z,4.78
2023-03-29T13:34:33.866Z,4.88
2023-03-29T13:37:27.205Z,5.40
2023-03-29T13:39:56.076Z,4.60
2023-03-29T13:42:36.532Z,5.40
2023-03-29T13:45:16.081Z,4.72
2023-03-29T13:47:58.778Z,5.20
2023-03-29T13:50:51.996Z,4.32
2023-03-29T13:53:33.440Z,5.03
2023-03-29T13:56:02.010Z,6.07
2023-03-29T13:58:43.197Z,5.43
2023-03-29T14:01:20.952Z,4.00
2023-03-29T14:03:51.884Z,4.13
2023-03-29T14:06:27.251Z,3.67
2023-03-29T14:08:56.567Z,3.33
2023-03-29T14:11:30.031Z,6.28
2023-03-29T14:14:01.430Z,4.20
2023-03-29T14:16:36.268Z,3.90
2023-03-29T14:19:16.986Z,3.05
2023-03-29T14:21:45.898Z,2.85
2023-03-29T14:24:23.340Z,3.90
2023-03-29T14:26:53.598Z,3.90
2023-03-29T14:29:22.385Z,5.30
2023-03-29T14:31:52.383Z,5.32
2023-03-29T14:34:20.850Z,6.05
2023-03-29T14:36:49.568Z,4.53
2023-03-29T14:39:23.175Z,5.85
2023-03-29T14:41:57.381Z,3.95
2023-03-29T14:44:34.726Z,5.55
2023-03-29T14:47:03.470Z,5.32
2023-03-29T14:49:33.313Z,4.95
2023-03-29T14:52:02.125Z,5.40
2023-03-29T14:54:34.863Z,6.93
2023-03-29T14:57:08.738Z,6.22
2023-03-29T14:59:43.364Z,5.28
2023-03-29T15:02:34.521Z,6.15
2023-03-29T15:05:08.105Z,6.45
2023-03-29T15:07:40.033Z,5.68
2023-03-29T15:10:08.724Z,6.38
2023-03-29T15:12:38.237Z,6.07
2023-03-29T15:15:12.729Z,7.35
2023-03-29T15:17:51.739Z,4.45
2023-03-29T15:20:27.660Z,4.85
2023-03-29T15:23:02.268Z,4.40
2023-03-29T15:25:44.533Z,4.82
2023-03-29T15:28:37.142Z,3.28
2023-03-29T15:31:21.864Z,5.15
2023-03-29T15:33:50.197Z,6.07
2023-03-29T15:36:18.258Z,5.97
2023-03-29T15:41:17.454Z,2.50
2023-03-29T15:43:45.149Z,3.60
2023-03-29T15:46:16.587Z,4.13
2023-03-29T15:48:45.326Z,4.45
2023-03-29T15:51:13.379Z,4.18
2023-03-29T15:53:42.038Z,3.78
2023-03-29T15:56:14.921Z,3.85
2023-03-29T15:58:44.961Z,2.40
2023-03-29T16:01:34.701Z,3.65
2023-03-29T16:04:04.977Z,4.38
2023-03-29T16:06:34.549Z,3.15
2023-03-29T16:09:02.406Z,2.85
2023-03-29T16:11:31.522Z,3.67
2023-03-29T16:13:59.885Z,4.35
2023-03-29T16:16:28.012Z,3.13
2023-03-29T16:18:57.293Z,3.95
2023-03-29T16:23:59.933Z,4.40
2023-03-29T16:26:32.714Z,3.25
2023-03-29T16:29:00.396Z,5.57
2023-03-29T16:31:28.209Z,3.40
2023-03-29T16:33:56.134Z,4.93
2023-03-29T16:41:20.070Z,3.78
2023-03-29T16:43:50.576Z,4.97
2023-03-29T16:46:19.324Z,4.88
2023-03-29T16:48:47.267Z,6.45
2023-03-29T16:51:15.337Z,10.52
2023-03-29T16:53:44.533Z,6.18
2023-03-29T16:56:12.649Z,5.93
2023-03-29T17:01:16.284Z,8.10
2023-03-29T17:03:46.396Z,6.25
2023-03-29T17:06:18.714Z,4.25
2023-03-29T17:08:47.469Z,7.00
2023-03-29T17:11:16.818Z,7.18
2023-03-29T17:13:52.128Z,8.48
2023-03-29T17:16:20.685Z,6.03
2023-03-29T17:18:49.560Z,3.17
2023-03-29T17:21:18.850Z,6.80
2023-03-29T17:23:48.787Z,3.95
2023-03-29T17:26:21.936Z,7.22
2023-03-29T17:28:50.099Z,8.05
2023-03-29T17:31:20.688Z,7.10
2023-03-29T17:33:52.352Z,9.80
2023-03-29T17:36:24.169Z,4.80
2023-03-29T17:38:52.203Z,5.18
2023-03-29T17:43:49.098Z,4.47
2023-03-29T17:46:18.464Z,7.00
2023-03-29T17:48:46.564Z,6.28
2023-03-29T17:51:14.763Z,7.20
2023-03-29T17:56:09.796Z,8.02
2023-03-29T17:58:38.538Z,6.97
2023-03-29T18:01:10.971Z,8.10
2023-03-29T18:03:39.323Z,7.22
2023-03-29T18:06:07.810Z,7.40
2023-03-29T18:08:36.546Z,8.98
2023-03-29T18:11:11.126Z,4.88
2023-03-29T18:13:40.052Z,10.90
2023-03-29T18:16:09.677Z,10.63
2023-03-29T18:18:38.909Z,7.85
2023-03-29T18:21:07.298Z,8.35
2023-03-29T18:23:43.458Z,8.10
2023-03-29T18:26:16.255Z,7.72
2023-03-29T18:28:49.050Z,6.40
2023-03-29T18:31:17.558Z,8.57
2023-03-29T18:33:46.863Z,6.38
2023-03-29T18:36:15.031Z,6.18
2023-03-29T18:38:43.977Z,12.88
2023-03-29T18:41:14.109Z,12.25
2023-03-29T18:43:43.278Z,8.93
2023-03-29T18:46:11.904Z,10.02
2023-03-29T18:48:42.070Z,8.65
2023-03-29T18:51:12.825Z,13.77
2023-03-29T18:53:45.068Z,13.05
2023-03-29T18:56:15.212Z,14.75
2023-03-29T18:58:43.629Z,10.38
2023-03-29T19:03:41.533Z,9.63
2023-03-29T19:06:09.857Z,12.15
2023-03-29T19:08:41.718Z,15.00
2023-03-29T19:11:15.045Z,14.38
2023-03-29T19:13:43.346Z,14.63
2023-03-29T19:18:40.188Z,16.02
2023-03-29T19:21:09.594Z,13.73
2023-03-29T19:23:38.466Z,14.68
2023-03-29T19:26:06.974Z,15.82
2023-03-29T19:28:35.106Z,13.57
2023-03-29T19:31:06.425Z,13.00
2023-03-29T19:33:34.374Z,16.80
2023-03-29T19:36:02.463Z,15.90
2023-03-29T19:38:30.516Z,12.65
2023-03-29T19:40:58.421Z,16.17
2023-03-29T19:43:26.399Z,12.27
2023-03-29T19:48:24.730Z,16.15
2023-03-29T19:50:52.931Z,11.57
2023-03-29T19:53:24.458Z,11.57
2023-03-29T19:55:55.265Z,10.15
2023-03-29T19:58:24.647Z,12.25
2023-03-29T20:00:57.107Z,12.15
2023-03-29T20:03:28.548Z,14.75
2023-03-29T20:05:56.995Z,14.60
2023-03-29T20:08:24.955Z,17.70
2023-03-29T20:11:01.932Z,12.73
2023-03-29T20:13:38.337Z,15.48
2023-03-29T20:16:14.327Z,11.27
2023-03-29T20:18:45.041Z,12.35
2023-03-29T20:21:16.647Z,10.18
2023-03-29T20:23:45.228Z,13.07
2023-03-29T20:26:13.224Z,12.23
2023-03-29T20:31:10.800Z,8.52
2023-03-29T20:33:39.641Z,13.20
2023-03-29T20:36:08.852Z,8.95
2023-03-29T20:38:38.272Z,11.82
2023-03-29T20:43:38.692Z,6.30
2023-03-29T20:46:22.603Z,9.55
2023-03-29T20:48:55.219Z,6.28
2023-03-29T20:51:33.243Z,8.68
2023-03-29T20:54:05.089Z,8.75
2023-03-29T20:56:39.037Z,9.98
2023-03-29T20:59:10.589Z,8.93
2023-03-29T21:01:41.186Z,10.13
2023-03-29T21:04:30.982Z,11.57
2023-03-29T21:13:03.615Z,11.98
2023-03-29T21:17:59.945Z,11.77
2023-03-29T21:20:28.143Z,7.22
2023-03-29T21:22:56.538Z,11.10
2023-03-29T21:25:24.535Z,11.27
2023-03-29T21:27:52.124Z,9.30
2023-03-29T21:30:20.732Z,9.23
2023-03-29T21:32:48.647Z,7.53
2023-03-29T21:35:18.582Z,8.43
2023-03-29T21:37:48.138Z,8.98
2023-03-29T21:40:16.048Z,10.77
2023-03-29T21:42:49.720Z,7.88
2023-03-29T21:45:19.988Z,10.48
2023-03-29T21:47:47.915Z,10.98
2023-03-29T21:50:16.803Z,8.80
2023-03-29T21:52:45.033Z,8.98
2023-03-29T21:55:13.757Z,7.22
2023-03-29T21:57:43.548Z,11.57
2023-03-29T22:00:13.950Z,11.52
2023-03-29T22:02:43.471Z,9.18
2023-03-29T22:05:11.942Z,9.93
2023-03-29T22:07:40.043Z,12.27
2023-03-29T22:12:40.580Z,10.32
2023-03-29T22:15:16.109Z,9.70
2023-03-29T22:17:49.949Z,9.07
2023-03-29T22:20:18.689Z,10.77
2023-03-29T22:22:51.690Z,8.00
2023-03-29T22:25:26.747Z,9.68
2023-03-29T22:28:00.004Z,10.15
2023-03-29T22:30:29.101Z,9.35
2023-03-29T22:33:00.332Z,9.05
2023-03-29T22:35:28.656Z,8.95
2023-03-29T22:37:57.836Z,11.75
2023-03-29T22:40:25.560Z,9.85
2023-03-29T22:42:53.146Z,9.20
2023-03-29T22:45:20.862Z,9.15
2023-03-29T22:47:49.080Z,7.60
2023-03-29T22:50:17.396Z,8.43
2023-03-29T22:52:45.233Z,8.80
2023-03-29T22:55:13.168Z,10.20
2023-03-29T22:57:40.832Z,10.13
2023-03-29T23:00:10.507Z,10.15
2023-03-29T23:02:39.429Z,10.13
2023-03-29T23:10:08.037Z,7.15
2023-03-29T23:12:37.476Z,8.52
2023-03-29T23:15:06.521Z,7.97
2023-03-29T23:17:35.072Z,8.65
2023-03-29T23:20:06.420Z,8.68
2023-03-29T23:22:36.356Z,9.65
2023-03-29T23:25:04.674Z,12.20
2023-03-29T23:27:33.327Z,11.20
2023-03-29T23:30:01.788Z,10.48
2023-03-29T23:32:29.708Z,10.25
2023-03-29T23:37:25.149Z,6.38
2023-03-29T23:39:52.773Z,6.70
2023-03-29T23:42:21.171Z,8.13
2023-03-29T23:44:48.988Z,5.57
2023-03-29T23:47:17.330Z,9.40
2023-03-29T23:52:14.142Z,6.53
2023-03-29T23:54:42.079Z,4.85
2023-03-29T23:59:40.135Z,3.63
